createdAt,value
2023-05-20T00:02:42.905Z,21.42
2023-05-20T00:07:45.886Z,19.98
2023-05-20T00:12:48.599Z,19.50
2023-05-20T00:17:51.515Z,19.63
2023-05-20T00:22:54.311Z,20.38
2023-05-20T00:27:57.236Z,19.15
2023-05-20T00:33:00.043Z,20.55
2023-05-20T00:38:02.821Z,20.43
2023-05-20T00:43:05.527Z,22.48
2023-05-20T00:48:10.101Z,21.13
2023-05-20T00:53:13.224Z,19.52
2023-05-20T00:58:16.207Z,16.30
2023-05-20T01:03:19.064Z,16.97
2023-05-20T01:08:26.395Z,17.95
2023-05-20T01:13:34.622Z,17.58
2023-05-20T01:18:39.630Z,15.25
2023-05-20T01:23:42.678Z,16.65
2023-05-20T01:28:45.441Z,15.23
2023-05-20T01:33:52.244Z,16.60
2023-05-20T01:38:56.338Z,19.35
2023-05-20T01:43:59.461Z,17.88
2023-05-20T01:49:02.532Z,20.00
2023-05-20T01:54:05.309Z,19.10
2023-05-20T01:59:08.071Z,19.65
2023-05-20T02:04:10.958Z,19.80
2023-05-20T02:09:13.907Z,20.73
2023-05-20T02:14:16.670Z,22.83
2023-05-20T02:19:24.083Z,21.00
2023-05-20T02:24:26.933Z,22.38
2023-05-20T02:29:29.721Z,24.50
2023-05-20T02:34:33.349Z,26.10
2023-05-20T02:39:36.114Z,29.63
2023-05-20T02:44:38.863Z,28.47
2023-05-20T02:49:41.797Z,28.40
2023-05-20T02:54:44.743Z,28.27
2023-05-20T02:59:48.160Z,29.75
2023-05-20T03:04:51.073Z,32.00
2023-05-20T03:09:54.039Z,28.27
2023-05-20T03:14:56.777Z,27.52
2023-05-20T03:19:59.603Z,29.83
2023-05-20T03:25:02.633Z,28.15
2023-05-20T03:30:07.746Z,33.20
2023-05-20T03:35:10.662Z,29.63
2023-05-20T03:40:14.533Z,25.48
2023-05-20T03:45:17.653Z,26.60
2023-05-20T03:50:41.444Z,24.88
2023-05-20T03:55:44.257Z,29.30
2023-05-20T04:00:49.379Z,26.43
2023-05-20T04:05:52.334Z,33.05
2023-05-20T04:10:58.068Z,31.20
2023-05-20T04:16:02.249Z,31.65
2023-05-20T04:21:06.060Z,30.58
2023-05-20T04:26:09.019Z,32.87
2023-05-20T04:31:11.732Z,30.55
2023-05-20T04:36:16.746Z,32.53
2023-05-20T04:41:20.203Z,32.30
2023-05-20T04:46:23.036Z,27.98
2023-05-20T04:51:25.846Z,34.63
2023-05-20T04:56:28.648Z,34.38
2023-05-20T05:01:31.435Z,31.02
2023-05-20T05:06:34.494Z,29.88
2023-05-20T05:11:37.472Z,26.90
2023-05-20T05:16:40.359Z,29.60
2023-05-20T05:21:43.131Z,24.20
2023-05-20T05:26:46.064Z,26.80
2023-05-20T05:31:49.215Z,26.08
2023-05-20T05:36:52.821Z,25.77
2023-05-20T05:41:56.536Z,25.50
2023-05-20T05:47:00.587Z,25.85
2023-05-20T05:52:03.732Z,24.02
2023-05-20T05:57:08.013Z,23.25
2023-05-20T06:02:11.463Z,21.63
2023-05-20T06:07:14.288Z,23.80
2023-05-20T06:12:17.079Z,23.60
2023-05-20T06:17:20.330Z,22.30
2023-05-20T06:22:23.365Z,22.15
2023-05-20T06:27:26.936Z,20.48
2023-05-20T06:32:29.929Z,22.27
2023-05-20T06:37:34.051Z,24.17
2023-05-20T06:42:37.107Z,24.70
2023-05-20T06:47:41.269Z,19.50
2023-05-20T06:52:45.842Z,24.10
2023-05-20T06:57:49.572Z,20.60
2023-05-20T07:02:54.053Z,19.02
2023-05-20T07:07:57.085Z,23.10
2023-05-20T07:13:00.916Z,25.13
2023-05-20T07:18:03.857Z,24.40
2023-05-20T07:23:06.722Z,24.57
2023-05-20T07:28:18.124Z,18.45
2023-05-20T07:33:21.030Z,26.90
2023-05-20T07:38:24.669Z,23.63
2023-05-20T07:43:33.121Z,23.63
2023-05-20T07:48:37.561Z,23.27
2023-05-20T07:53:40.518Z,19.27
2023-05-20T07:58:43.476Z,16.73
2023-05-20T08:03:46.833Z,17.20
2023-05-20T08:08:54.742Z,14.57
2023-05-20T08:14:03.321Z,14.70
2023-05-20T08:19:12.768Z,16.95
2023-05-20T08:24:15.828Z,16.65
2023-05-20T08:29:19.497Z,16.55
2023-05-20T08:34:22.762Z,15.38
2023-05-20T08:39:27.576Z,14.77
2023-05-20T08:44:33.952Z,13.63
2023-05-20T08:49:36.826Z,19.15
2023-05-20T08:54:48.435Z,19.00
2023-05-20T08:59:51.857Z,17.33
2023-05-20T09:04:54.638Z,19.43
2023-05-20T09:09:58.166Z,14.20
2023-05-20T09:15:00.985Z,19.23
2023-05-20T09:20:11.135Z,21.00
2023-05-20T09:25:14.543Z,25.40
2023-05-20T09:30:21.363Z,21.77
2023-05-20T09:35:25.619Z,21.55
2023-05-20T09:40:29.555Z,21.15
2023-05-20T09:45:32.466Z,23.95
2023-05-20T09:50:35.964Z,25.33
2023-05-20T09:55:39.421Z,24.07
2023-05-20T10:00:42.379Z,26.40
2023-05-20T10:06:20.565Z,29.65
2023-05-20T10:11:47.275Z,29.80
2023-05-20T10:17:08.219Z,29.15
2023-05-20T10:22:12.269Z,27.07
2023-05-20T10:27:15.935Z,22.13
2023-05-20T10:32:26.963Z,29.23
2023-05-20T10:37:32.966Z,26.05
2023-05-20T10:42:35.804Z,24.08
2023-05-20T10:47:54.046Z,27.47
2023-05-20T10:53:09.480Z,24.02
2023-05-20T10:58:15.878Z,23.17
2023-05-20T11:03:19.030Z,25.67
2023-05-20T11:08:29.037Z,25.02
2023-05-20T11:13:32.425Z,26.07
2023-05-20T11:18:35.216Z,27.98
2023-05-20T11:23:39.965Z,17.80
2023-05-20T11:28:43.689Z,27.33
2023-05-20T11:33:47.199Z,30.58
2023-05-20T11:38:52.099Z,25.50
2023-05-20T11:44:01.508Z,26.33
2023-05-20T11:49:04.643Z,25.70
2023-05-20T11:54:08.874Z,24.45
2023-05-20T11:59:12.036Z,24.25
2023-05-20T12:04:15.305Z,17.43
2023-05-20T12:09:18.186Z,25.55
2023-05-20T12:14:21.035Z,20.60
2023-05-20T12:19:23.789Z,21.45
2023-05-20T12:24:26.787Z,26.98
2023-05-20T12:29:30.052Z,25.63
2023-05-20T12:34:33.508Z,22.27
2023-05-20T12:39:37.029Z,25.15
2023-05-20T12:44:39.794Z,24.85
2023-05-20T12:49:42.673Z,25.35
2023-05-20T12:54:45.481Z,24.23
2023-05-20T12:59:48.582Z,23.35
2023-05-20T13:04:51.612Z,21.02
2023-05-20T13:09:54.753Z,25.73
2023-05-20T13:14:57.527Z,23.65
2023-05-20T13:20:00.454Z,24.13
2023-05-20T13:25:04.606Z,21.15
2023-05-20T13:30:08.437Z,22.27
2023-05-20T13:35:13.298Z,18.83
2023-05-20T13:40:16.346Z,22.48
2023-05-20T13:45:19.344Z,20.40
2023-05-20T13:50:22.154Z,22.08
2023-05-20T13:55:25.172Z,21.17
2023-05-20T14:00:28.015Z,24.13
2023-05-20T14:05:32.885Z,17.88
2023-05-20T14:10:35.978Z,17.53
2023-05-20T14:15:39.087Z,18.83
2023-05-20T14:20:42.096Z,17.15
2023-05-20T14:25:45.347Z,17.45
2023-05-20T14:30:48.167Z,21.60
2023-05-20T14:35:51.562Z,17.07
2023-05-20T14:40:54.453Z,15.32
2023-05-20T14:45:57.428Z,15.35
2023-05-20T14:51:00.459Z,13.18
2023-05-20T14:56:03.692Z,20.40
2023-05-20T15:01:06.904Z,16.13
2023-05-20T15:06:09.835Z,16.15
2023-05-20T15:11:12.875Z,14.48
2023-05-20T15:16:15.908Z,16.42
2023-05-20T15:21:19.437Z,14.38
2023-05-20T15:26:22.464Z,19.20
2023-05-20T15:31:25.609Z,13.77
2023-05-20T15:36:28.446Z,14.50
2023-05-20T15:41:33.099Z,16.80
2023-05-20T15:46:36.219Z,13.48
2023-05-20T15:51:40.987Z,13.27
2023-05-20T15:56:44.114Z,15.32
2023-05-20T16:01:47.422Z,16.55
2023-05-20T16:06:50.427Z,15.77
2023-05-20T16:11:53.394Z,21.08
2023-05-20T16:16:57.131Z,14.50
2023-05-20T16:22:00.010Z,14.00
2023-05-20T16:27:02.997Z,12.77
2023-05-20T16:32:06.920Z,15.25
2023-05-20T16:37:10.739Z,12.70
2023-05-20T16:42:14.137Z,11.83
2023-05-20T16:47:18.706Z,12.55
2023-05-20T16:52:21.668Z,18.17
2023-05-20T16:57:24.736Z,14.05
2023-05-20T17:02:27.927Z,14.00
2023-05-20T17:07:31.064Z,12.13
2023-05-20T17:12:33.978Z,13.73
2023-05-20T17:17:37.132Z,13.80
2023-05-20T17:22:40.203Z,12.75
2023-05-20T17:27:43.376Z,17.25
2023-05-20T17:32:46.453Z,13.40
2023-05-20T17:37:49.528Z,13.25
2023-05-20T17:42:52.483Z,16.10
2023-05-20T17:47:55.483Z,14.13
2023-05-20T17:52:58.433Z,15.18
2023-05-20T17:58:02.242Z,18.30
2023-05-20T18:03:06.299Z,17.90
2023-05-20T18:08:09.476Z,16.80
2023-05-20T18:13:12.418Z,16.38
2023-05-20T18:18:15.368Z,15.88
2023-05-20T18:23:18.270Z,14.97
2023-05-20T18:28:21.306Z,16.13
2023-05-20T18:33:24.996Z,15.27
2023-05-20T18:38:27.936Z,15.15
2023-05-20T18:43:30.809Z,13.77
2023-05-20T18:48:33.874Z,12.17
2023-05-20T18:53:36.647Z,15.90
2023-05-20T18:58:39.725Z,12.95
2023-05-20T19:03:45.238Z,12.82
2023-05-20T19:08:49.470Z,13.68
2023-05-20T19:13:52.448Z,12.77
2023-05-20T19:18:55.435Z,12.52
2023-05-20T19:23:58.147Z,13.15
2023-05-20T19:29:01.082Z,18.05
2023-05-20T19:34:03.996Z,14.10
2023-05-20T19:39:08.150Z,13.03
2023-05-20T19:44:12.089Z,15.73
2023-05-20T19:49:15.073Z,15.45
2023-05-20T19:54:18.330Z,14.82
2023-05-20T19:59:21.525Z,17.58
2023-05-20T20:04:24.981Z,16.10
2023-05-20T20:09:28.299Z,18.38
2023-05-20T20:14:31.682Z,15.82
2023-05-20T20:19:35.015Z,15.10
2023-05-20T20:24:37.830Z,15.23
2023-05-20T20:29:43.403Z,16.03
2023-05-20T20:34:46.323Z,16.83
2023-05-20T20:39:50.345Z,19.40
2023-05-20T20:44:53.146Z,19.33
2023-05-20T20:49:56.887Z,16.85
2023-05-20T20:55:00.029Z,17.60
2023-05-20T21:00:13.386Z,19.15
2023-05-20T21:05:18.967Z,17.23
2023-05-20T21:10:21.868Z,18.73
2023-05-20T21:15:26.165Z,18.85
2023-05-20T21:20:29.012Z,17.60
2023-05-20T21:25:31.879Z,17.92
2023-05-20T21:30:34.585Z,17.10
2023-05-20T21:35:37.801Z,16.73
2023-05-20T21:40:41.557Z,18.25
2023-05-20T21:45:44.405Z,20.63
2023-05-20T21:50:47.157Z,18.30
2023-05-20T21:55:50.015Z,22.67
2023-05-20T22:00:53.128Z,21.20
2023-05-20T22:05:56.487Z,22.85
2023-05-20T22:11:01.501Z,21.50
2023-05-20T22:16:05.208Z,24.02
2023-05-20T22:21:08.190Z,25.65
2023-05-20T22:26:10.970Z,20.73
2023-05-20T22:31:13.800Z,21.95
2023-05-20T22:36:16.722Z,22.57
2023-05-20T22:41:19.521Z,25.95
2023-05-20T22:46:22.622Z,23.60
2023-05-20T22:51:25.626Z,21.23
2023-05-20T22:56:29.795Z,24.25
2023-05-20T23:01:33.147Z,20.03
2023-05-20T23:06:38.340Z,23.65
2023-05-20T23:11:41.029Z,25.10
2023-05-20T23:16:44.166Z,22.67
2023-05-20T23:21:46.923Z,21.58
2023-05-20T23:26:49.620Z,23.10
2023-05-20T23:31:52.320Z,23.92
2023-05-20T23:36:55.507Z,23.52
2023-05-20T23:41:58.249Z,22.23
2023-05-20T23:47:01.757Z,23.45
2023-05-20T23:52:04.707Z,25.67
2023-05-20T23:57:10.542Z,20.45
